createdAt,value
2023-10-06T00:00:20.237Z,2.92
2023-10-06T00:01:26.508Z,2.62
2023-10-06T00:02:32.294Z,2.65
2023-10-06T00:03:37.046Z,2.28
2023-10-06T00:04:42.673Z,2.55
2023-10-06T00:05:46.266Z,2.40
2023-10-06T00:06:49.927Z,2.15
2023-10-06T00:07:52.974Z,2.20
2023-10-06T00:08:58.555Z,2.45
2023-10-06T00:10:01.398Z,2.10
2023-10-06T00:11:13.228Z,2.60
2023-10-06T00:12:17.865Z,2.78
2023-10-06T00:13:25.005Z,2.45
2023-10-06T00:14:40.434Z,2.58
2023-10-06T00:15:45.312Z,2.30
2023-10-06T00:16:51.284Z,2.12
2023-10-06T00:18:01.636Z,2.45
2023-10-06T00:19:16.357Z,2.42
2023-10-06T00:20:28.040Z,2.47
2023-10-06T00:21:31.158Z,2.22
2023-10-06T00:22:37.131Z,2.47
2023-10-06T00:23:40.876Z,2.30
2023-10-06T00:24:56.545Z,2.80
2023-10-06T00:26:00.472Z,2.62
2023-10-06T00:27:04.747Z,2.42
2023-10-06T00:28:15.589Z,2.50
2023-10-06T00:29:22.996Z,2.47
2023-10-06T00:30:26.965Z,2.80
2023-10-06T00:31:33.207Z,2.62
2023-10-06T00:32:38.553Z,2.78
2023-10-06T00:33:43.671Z,2.25
2023-10-06T00:34:46.665Z,2.55
2023-10-06T00:35:49.911Z,2.55
2023-10-06T00:36:57.432Z,2.42
2023-10-06T00:38:06.096Z,2.45
2023-10-06T00:39:14.245Z,2.78
2023-10-06T00:40:21.395Z,2.87
2023-10-06T00:41:24.744Z,2.53
2023-10-06T00:42:28.476Z,2.28
2023-10-06T00:43:36.715Z,2.30
2023-10-06T00:44:41.148Z,2.87
2023-10-06T00:45:45.426Z,2.28
2023-10-06T00:46:49.159Z,2.42
2023-10-06T00:47:55.312Z,2.67
2023-10-06T00:49:01.024Z,2.50
2023-10-06T00:50:07.102Z,2.35
2023-10-06T00:51:23.600Z,2.17
2023-10-06T00:52:26.515Z,2.33
2023-10-06T00:53:33.218Z,2.80
2023-10-06T00:54:36.132Z,2.33
2023-10-06T00:55:41.002Z,2.62
2023-10-06T00:56:44.267Z,1.90
2023-10-06T00:57:54.654Z,2.85
2023-10-06T00:58:57.885Z,2.53
2023-10-06T01:00:00.716Z,2.62
2023-10-06T01:01:06.927Z,2.47
2023-10-06T01:02:13.119Z,3.67
2023-10-06T01:03:16.415Z,2.62
2023-10-06T01:04:20.506Z,2.65
2023-10-06T01:05:23.457Z,2.50
2023-10-06T01:06:34.984Z,2.75
2023-10-06T01:08:42.566Z,2.78
2023-10-06T01:09:58.873Z,2.35
2023-10-06T01:11:12.850Z,2.50
2023-10-06T01:12:20.850Z,2.62
2023-10-06T01:13:24.097Z,2.53
2023-10-06T01:14:30.445Z,2.70
2023-10-06T01:15:33.253Z,2.97
2023-10-06T01:16:36.703Z,2.37
2023-10-06T01:17:40.125Z,2.30
2023-10-06T01:18:43.188Z,2.53
2023-10-06T01:19:50.191Z,2.35
2023-10-06T01:20:54.275Z,2.70
2023-10-06T01:21:57.624Z,2.83
2023-10-06T01:23:01.063Z,2.10
2023-10-06T01:24:13.270Z,2.62
2023-10-06T01:25:22.587Z,2.78
2023-10-06T01:26:26.162Z,2.65
2023-10-06T01:27:29.506Z,2.37
2023-10-06T01:28:36.483Z,2.53
2023-10-06T01:29:39.709Z,2.60
2023-10-06T01:30:42.563Z,3.08
2023-10-06T01:31:45.833Z,2.60
2023-10-06T01:32:52.992Z,2.20
2023-10-06T01:33:57.300Z,2.35
2023-10-06T01:35:00.346Z,2.35
2023-10-06T01:36:08.538Z,2.35
2023-10-06T01:37:11.560Z,2.58
2023-10-06T01:38:24.108Z,2.45
2023-10-06T01:39:31.928Z,2.90
2023-10-06T01:40:35.124Z,2.53
2023-10-06T01:41:38.218Z,2.20
2023-10-06T01:42:41.278Z,3.00
2023-10-06T01:43:46.458Z,2.50
2023-10-06T01:44:49.556Z,2.70
2023-10-06T01:45:53.084Z,2.55
2023-10-06T01:46:56.457Z,2.67
2023-10-06T01:48:14.400Z,2.47
2023-10-06T01:49:17.444Z,2.53
2023-10-06T01:50:20.517Z,2.58
2023-10-06T01:51:24.100Z,2.83
2023-10-06T01:52:27.270Z,2.40
2023-10-06T01:53:34.603Z,2.50
2023-10-06T01:54:38.064Z,2.97
2023-10-06T01:55:40.943Z,2.20
2023-10-06T01:56:43.840Z,2.70
2023-10-06T01:57:49.190Z,3.08
2023-10-06T01:58:52.660Z,2.62
2023-10-06T01:59:55.362Z,2.67
2023-10-06T02:00:58.407Z,2.85
2023-10-06T02:02:09.462Z,2.60
2023-10-06T02:03:13.008Z,2.42
2023-10-06T02:04:16.130Z,2.58
2023-10-06T02:05:18.914Z,2.53
2023-10-06T02:06:21.918Z,2.58
2023-10-06T02:07:24.926Z,2.35
2023-10-06T02:08:27.949Z,2.40
2023-10-06T02:09:31.558Z,2.47
2023-10-06T02:10:34.596Z,2.90
2023-10-06T02:11:37.439Z,2.58
2023-10-06T02:12:40.812Z,2.47
2023-10-06T02:13:43.872Z,2.80
2023-10-06T02:14:49.372Z,2.40
2023-10-06T02:16:00.601Z,2.83
2023-10-06T02:17:07.131Z,2.37
2023-10-06T02:18:13.940Z,2.37
2023-10-06T02:19:19.898Z,2.70
2023-10-06T02:20:25.849Z,2.97
2023-10-06T02:21:30.513Z,2.72
2023-10-06T02:22:33.583Z,2.60
2023-10-06T02:23:41.780Z,2.37
2023-10-06T02:24:46.655Z,2.62
2023-10-06T02:25:49.691Z,2.58
2023-10-06T02:27:02.897Z,2.95
2023-10-06T02:28:07.228Z,3.05
2023-10-06T02:29:19.178Z,2.30
2023-10-06T02:30:36.991Z,3.47
2023-10-06T02:31:42.798Z,2.50
2023-10-06T02:32:46.807Z,2.62
2023-10-06T02:33:50.504Z,2.47
2023-10-06T02:34:54.090Z,2.37
2023-10-06T02:36:00.263Z,3.22
2023-10-06T02:37:05.938Z,2.67
2023-10-06T02:38:08.972Z,2.58
2023-10-06T02:39:17.422Z,2.60
2023-10-06T02:40:30.900Z,2.90
2023-10-06T02:41:35.571Z,2.50
2023-10-06T02:42:46.451Z,2.47
2023-10-06T02:43:51.281Z,2.60
2023-10-06T02:44:55.296Z,2.95
2023-10-06T02:46:05.926Z,2.75
2023-10-06T02:47:13.324Z,2.80
2023-10-06T02:48:16.571Z,2.70
2023-10-06T02:49:33.349Z,2.78
2023-10-06T02:50:37.717Z,2.72
2023-10-06T02:51:50.072Z,2.83
2023-10-06T02:52:56.208Z,2.70
2023-10-06T02:54:18.949Z,2.37
2023-10-06T02:55:22.676Z,2.40
2023-10-06T02:56:30.190Z,2.30
2023-10-06T02:57:37.079Z,2.47
2023-10-06T02:58:42.735Z,2.62
2023-10-06T02:59:46.144Z,2.53
2023-10-06T03:00:51.826Z,2.65
2023-10-06T03:01:59.189Z,2.87
2023-10-06T03:03:13.585Z,3.60
2023-10-06T03:04:18.723Z,2.45
2023-10-06T03:05:22.620Z,2.50
2023-10-06T03:06:25.698Z,3.00
2023-10-06T03:07:28.744Z,2.40
2023-10-06T03:08:31.609Z,3.17
2023-10-06T03:09:45.762Z,3.12
2023-10-06T03:10:49.947Z,2.72
2023-10-06T03:11:52.927Z,2.50
2023-10-06T03:12:58.523Z,2.20
2023-10-06T03:14:02.073Z,2.62
2023-10-06T03:15:10.687Z,2.70
2023-10-06T03:16:13.618Z,2.90
2023-10-06T03:18:24.268Z,3.15
2023-10-06T03:19:29.202Z,2.95
2023-10-06T03:20:51.371Z,2.35
2023-10-06T03:22:00.379Z,2.87
2023-10-06T03:23:14.933Z,2.50
2023-10-06T03:24:32.239Z,2.50
2023-10-06T03:25:37.060Z,3.00
2023-10-06T03:26:45.569Z,2.97
2023-10-06T03:27:55.835Z,2.60
2023-10-06T03:29:04.059Z,3.15
2023-10-06T03:30:12.889Z,3.42
2023-10-06T03:31:18.806Z,2.95
2023-10-06T03:32:50.498Z,3.03
2023-10-06T03:33:56.272Z,2.95
2023-10-06T03:35:07.196Z,3.20
2023-10-06T03:36:10.935Z,2.60
2023-10-06T03:37:17.845Z,2.72
2023-10-06T03:38:20.897Z,2.87
2023-10-06T03:39:29.328Z,2.72
2023-10-06T03:40:37.405Z,2.40
2023-10-06T03:41:45.543Z,2.58
2023-10-06T03:42:49.120Z,3.10
2023-10-06T03:43:54.624Z,2.40
2023-10-06T03:45:07.593Z,2.47
2023-10-06T03:46:13.608Z,2.40
2023-10-06T03:47:16.864Z,2.25
2023-10-06T03:48:20.975Z,2.67
2023-10-06T03:49:24.262Z,2.30
2023-10-06T03:50:28.555Z,2.45
2023-10-06T03:51:39.260Z,2.50
2023-10-06T03:52:42.141Z,2.37
2023-10-06T03:53:52.061Z,3.03
2023-10-06T03:54:59.912Z,2.83
2023-10-06T03:56:02.958Z,2.55
2023-10-06T03:57:06.028Z,2.90
2023-10-06T03:58:10.809Z,2.60
2023-10-06T03:59:17.045Z,2.53
2023-10-06T04:00:20.806Z,2.70
2023-10-06T04:01:32.600Z,2.80
2023-10-06T04:02:42.060Z,2.62
2023-10-06T04:03:45.344Z,2.80
2023-10-06T04:04:51.303Z,2.62
2023-10-06T04:05:54.154Z,2.60
2023-10-06T04:06:59.798Z,2.65
2023-10-06T04:08:08.975Z,2.70
2023-10-06T04:09:13.052Z,2.67
2023-10-06T04:10:16.656Z,2.45
2023-10-06T04:11:20.496Z,2.65
2023-10-06T04:12:23.742Z,2.05
2023-10-06T04:13:27.491Z,2.28
2023-10-06T04:14:33.195Z,2.80
2023-10-06T04:15:47.462Z,2.70
2023-10-06T04:16:52.177Z,2.80
2023-10-06T04:17:55.369Z,2.28
2023-10-06T04:18:58.477Z,2.67
2023-10-06T04:20:06.340Z,3.25
2023-10-06T04:21:12.771Z,2.97
2023-10-06T04:22:16.244Z,2.70
2023-10-06T04:23:20.057Z,2.45
2023-10-06T04:24:23.262Z,2.42
2023-10-06T04:25:26.186Z,2.28
2023-10-06T04:26:29.205Z,2.78
2023-10-06T04:27:34.483Z,3.05
2023-10-06T04:28:38.436Z,2.80
2023-10-06T04:29:42.280Z,2.25
2023-10-06T04:30:46.542Z,2.85
2023-10-06T04:31:50.451Z,2.50
2023-10-06T04:32:54.890Z,2.97
2023-10-06T04:33:59.443Z,2.85
2023-10-06T04:35:02.214Z,2.67
2023-10-06T04:36:13.194Z,2.80
2023-10-06T04:37:18.572Z,2.45
2023-10-06T04:38:21.645Z,2.50
2023-10-06T04:39:25.018Z,2.45
2023-10-06T04:40:29.155Z,2.67
2023-10-06T04:41:31.933Z,2.78
2023-10-06T04:42:35.272Z,2.53
2023-10-06T04:43:39.127Z,2.60
2023-10-06T04:44:42.756Z,2.58
2023-10-06T04:45:46.588Z,2.15
2023-10-06T04:46:51.930Z,2.60
2023-10-06T04:47:57.287Z,2.20
2023-10-06T04:49:00.454Z,2.67
2023-10-06T04:50:04.072Z,2.22
2023-10-06T04:51:10.532Z,2.62
2023-10-06T04:52:13.429Z,2.58
2023-10-06T04:53:18.163Z,2.55
2023-10-06T04:54:21.590Z,2.30
2023-10-06T04:55:24.630Z,2.55
2023-10-06T04:56:33.920Z,2.53
2023-10-06T04:57:36.653Z,2.28
2023-10-06T04:58:43.835Z,2.30
2023-10-06T04:59:46.948Z,2.33
2023-10-06T05:00:54.812Z,2.65
2023-10-06T05:01:57.919Z,2.42
2023-10-06T05:03:04.788Z,2.50
2023-10-06T05:04:10.696Z,2.60
2023-10-06T05:05:14.836Z,2.55
2023-10-06T05:06:19.257Z,2.25
2023-10-06T05:07:22.753Z,2.78
2023-10-06T05:08:26.204Z,3.20
2023-10-06T05:09:29.281Z,2.97
2023-10-06T05:10:33.389Z,2.47
2023-10-06T05:11:39.251Z,2.90
2023-10-06T05:12:44.075Z,3.05
2023-10-06T05:13:56.956Z,2.60
2023-10-06T05:15:00.279Z,2.58
2023-10-06T05:16:03.665Z,3.45
2023-10-06T05:17:06.422Z,3.12
2023-10-06T05:18:14.280Z,3.10
2023-10-06T05:19:16.907Z,3.28
2023-10-06T05:20:22.291Z,3.65
2023-10-06T05:21:25.377Z,2.80
2023-10-06T05:22:28.622Z,2.95
2023-10-06T05:23:32.241Z,3.00
2023-10-06T05:24:36.782Z,2.87
2023-10-06T05:25:40.721Z,3.15
2023-10-06T05:26:44.972Z,3.35
2023-10-06T05:27:48.810Z,2.65
2023-10-06T05:28:52.165Z,2.67
2023-10-06T05:29:56.097Z,2.65
2023-10-06T05:30:59.211Z,2.30
2023-10-06T05:32:02.678Z,2.62
2023-10-06T05:33:06.071Z,2.70
2023-10-06T05:34:09.992Z,2.50
2023-10-06T05:35:15.509Z,2.70
2023-10-06T05:36:21.236Z,2.78
2023-10-06T05:37:24.851Z,2.45
2023-10-06T05:38:27.857Z,2.58
2023-10-06T05:39:34.871Z,2.95
2023-10-06T05:40:38.228Z,2.67
2023-10-06T05:41:41.234Z,3.00
2023-10-06T05:42:44.814Z,2.83
2023-10-06T05:43:47.782Z,2.62
2023-10-06T05:44:50.648Z,2.75
2023-10-06T05:45:53.934Z,2.40
2023-10-06T05:46:57.125Z,2.55
2023-10-06T05:48:00.368Z,2.62
2023-10-06T05:49:04.992Z,2.90
2023-10-06T05:50:10.243Z,2.75
2023-10-06T05:51:16.722Z,3.10
2023-10-06T05:52:21.504Z,2.37
2023-10-06T05:53:24.632Z,2.85
2023-10-06T05:54:31.060Z,2.60
2023-10-06T05:55:36.593Z,2.80
2023-10-06T05:56:43.940Z,2.08
2023-10-06T05:57:57.238Z,2.58
2023-10-06T05:59:00.038Z,2.47
2023-10-06T06:00:02.720Z,2.35
2023-10-06T06:01:12.750Z,2.58
2023-10-06T06:02:17.511Z,2.58
2023-10-06T06:03:25.060Z,2.72
2023-10-06T06:04:29.127Z,2.70
2023-10-06T06:05:37.223Z,2.70
2023-10-06T06:06:41.568Z,2.75
2023-10-06T06:07:45.323Z,2.30
2023-10-06T06:08:52.517Z,2.50
2023-10-06T06:09:55.164Z,2.53
2023-10-06T06:10:58.498Z,2.95
2023-10-06T06:12:02.044Z,2.72
2023-10-06T06:13:05.538Z,2.60
2023-10-06T06:14:17.380Z,2.47
2023-10-06T06:15:21.671Z,2.42
2023-10-06T06:16:25.730Z,2.67
2023-10-06T06:17:28.853Z,2.47
2023-10-06T06:18:32.303Z,2.65
2023-10-06T06:19:35.246Z,2.97
2023-10-06T06:20:42.953Z,3.30
2023-10-06T06:21:50.207Z,2.35
2023-10-06T06:23:05.447Z,2.47
2023-10-06T06:24:08.580Z,2.58
2023-10-06T06:25:11.549Z,2.95
2023-10-06T06:26:18.653Z,2.62
2023-10-06T06:27:23.983Z,2.78
2023-10-06T06:28:27.269Z,2.58
2023-10-06T06:29:31.144Z,2.83
2023-10-06T06:30:38.420Z,3.17
2023-10-06T06:31:42.778Z,2.45
2023-10-06T06:32:51.927Z,2.70
2023-10-06T06:33:58.820Z,2.37
2023-10-06T06:35:03.115Z,2.60
2023-10-06T06:36:06.824Z,2.25
2023-10-06T06:37:14.484Z,2.15
2023-10-06T06:38:20.156Z,2.92
2023-10-06T06:39:24.467Z,2.30
2023-10-06T06:40:31.030Z,2.55
2023-10-06T06:41:34.575Z,2.53
2023-10-06T06:42:38.082Z,2.67
2023-10-06T06:43:46.908Z,2.15
2023-10-06T06:44:50.106Z,2.40
2023-10-06T06:45:55.182Z,3.05
2023-10-06T06:46:58.794Z,2.22
2023-10-06T06:48:04.652Z,2.85
2023-10-06T06:49:07.735Z,2.70
2023-10-06T06:50:16.971Z,2.33
2023-10-06T06:51:21.209Z,2.20
2023-10-06T06:52:24.006Z,2.55
2023-10-06T06:53:27.453Z,2.50
2023-10-06T06:54:37.998Z,2.75
2023-10-06T06:55:44.389Z,2.67
2023-10-06T06:56:50.838Z,2.70
2023-10-06T06:57:57.127Z,2.40
2023-10-06T06:59:01.360Z,2.35
2023-10-06T07:00:10.811Z,2.40
2023-10-06T07:01:16.392Z,2.42
2023-10-06T07:02:19.688Z,2.90
2023-10-06T07:03:22.683Z,2.12
2023-10-06T07:04:27.698Z,2.37
2023-10-06T07:05:31.494Z,3.03
2023-10-06T07:06:34.777Z,2.78
2023-10-06T07:07:38.702Z,2.40
2023-10-06T07:08:41.829Z,2.55
2023-10-06T07:09:44.876Z,2.53
2023-10-06T07:10:53.895Z,2.50
2023-10-06T07:11:56.694Z,2.25
2023-10-06T07:12:59.860Z,2.50
2023-10-06T07:14:02.725Z,2.08
2023-10-06T07:15:11.073Z,2.30
2023-10-06T07:16:16.035Z,2.15
2023-10-06T07:17:20.113Z,2.17
2023-10-06T07:18:25.251Z,2.08
2023-10-06T07:19:28.366Z,2.33
2023-10-06T07:20:31.825Z,2.25
2023-10-06T07:21:34.646Z,2.05
2023-10-06T07:22:37.923Z,2.65
2023-10-06T07:23:40.704Z,2.58
2023-10-06T07:24:43.396Z,2.67
2023-10-06T07:25:46.700Z,2.50
2023-10-06T07:26:51.560Z,2.42
2023-10-06T07:27:56.865Z,2.33
2023-10-06T07:29:00.901Z,2.65
2023-10-06T07:30:06.286Z,2.58
2023-10-06T07:31:11.265Z,2.17
2023-10-06T07:32:15.615Z,2.45
2023-10-06T07:33:18.434Z,2.40
2023-10-06T07:34:21.531Z,2.92
2023-10-06T07:35:47.489Z,2.58
2023-10-06T07:36:50.286Z,2.53
2023-10-06T07:37:53.865Z,2.72
2023-10-06T07:38:56.712Z,1.95
2023-10-06T07:40:04.366Z,2.45
2023-10-06T07:41:07.342Z,2.72
2023-10-06T07:42:10.328Z,2.20
2023-10-06T07:43:14.425Z,2.45
2023-10-06T07:44:17.373Z,2.28
2023-10-06T07:45:24.131Z,2.47
2023-10-06T07:46:28.255Z,2.08
2023-10-06T07:47:33.044Z,2.75
2023-10-06T07:48:38.033Z,2.05
2023-10-06T07:49:41.768Z,2.47
2023-10-06T07:50:45.513Z,2.17
2023-10-06T07:51:48.373Z,2.25
2023-10-06T07:52:52.503Z,2.08
2023-10-06T07:53:55.671Z,2.08
2023-10-06T07:54:58.597Z,2.62
2023-10-06T07:56:10.633Z,2.80
2023-10-06T07:57:14.264Z,2.40
2023-10-06T07:58:17.089Z,2.75
2023-10-06T07:59:20.343Z,2.35
2023-10-06T08:00:30.022Z,2.22
2023-10-06T08:01:36.373Z,2.53
2023-10-06T08:02:40.987Z,2.20
2023-10-06T08:03:44.702Z,2.33
2023-10-06T08:04:47.904Z,2.53
2023-10-06T08:05:50.641Z,2.40
2023-10-06T08:06:54.038Z,2.12
2023-10-06T08:08:00.056Z,1.98
2023-10-06T08:09:07.020Z,1.98
2023-10-06T08:10:15.315Z,2.12
2023-10-06T08:11:21.313Z,2.15
2023-10-06T08:12:25.760Z,2.40
2023-10-06T08:13:32.119Z,2.30
2023-10-06T08:14:35.116Z,2.28
2023-10-06T08:15:42.069Z,2.25
2023-10-06T08:16:47.317Z,2.20
2023-10-06T08:17:53.013Z,1.90
2023-10-06T08:18:56.075Z,1.90
2023-10-06T08:19:59.235Z,2.40
2023-10-06T08:21:02.595Z,2.40
2023-10-06T08:22:05.731Z,2.03
2023-10-06T08:23:08.847Z,2.22
2023-10-06T08:24:12.891Z,2.20
2023-10-06T08:25:16.493Z,2.15
2023-10-06T08:26:19.585Z,2.55
2023-10-06T08:27:25.428Z,2.78
2023-10-06T08:28:28.612Z,1.92
2023-10-06T08:29:33.937Z,2.60
2023-10-06T08:30:38.796Z,2.17
2023-10-06T08:31:41.663Z,2.30
2023-10-06T08:32:55.355Z,2.60
2023-10-06T08:34:05.769Z,2.08
2023-10-06T08:35:14.756Z,2.33
2023-10-06T08:36:18.384Z,2.45
2023-10-06T08:37:21.437Z,2.65
2023-10-06T08:38:25.749Z,2.20
2023-10-06T08:39:40.203Z,2.25
2023-10-06T08:40:43.616Z,2.78
2023-10-06T08:41:46.735Z,2.37
2023-10-06T08:42:52.757Z,2.50
2023-10-06T08:44:03.130Z,2.33
2023-10-06T08:45:06.966Z,2.40
2023-10-06T08:46:14.478Z,2.40
2023-10-06T08:47:29.171Z,2.53
2023-10-06T08:48:37.555Z,2.58
2023-10-06T08:49:47.844Z,2.33
2023-10-06T08:50:51.257Z,2.30
2023-10-06T08:51:55.511Z,3.00
2023-10-06T08:53:00.748Z,2.70
2023-10-06T08:54:06.556Z,2.58
2023-10-06T08:55:10.475Z,2.92
2023-10-06T08:56:16.928Z,2.30
2023-10-06T08:57:20.081Z,2.70
2023-10-06T08:58:22.958Z,2.60
2023-10-06T08:59:26.251Z,2.80
2023-10-06T09:00:33.129Z,2.78
2023-10-06T09:01:37.307Z,2.42
2023-10-06T09:02:42.850Z,2.30
2023-10-06T09:03:48.558Z,2.55
2023-10-06T09:04:52.325Z,2.50
2023-10-06T09:05:55.386Z,2.70
2023-10-06T09:07:09.931Z,3.08
2023-10-06T09:08:16.511Z,2.60
2023-10-06T09:09:30.050Z,2.72
2023-10-06T09:10:35.278Z,2.80
2023-10-06T09:11:40.134Z,3.03
2023-10-06T09:12:43.962Z,2.75
2023-10-06T09:13:47.254Z,2.53
2023-10-06T09:14:57.504Z,2.17
2023-10-06T09:16:10.073Z,2.65
2023-10-06T09:17:12.931Z,2.60
2023-10-06T09:18:23.238Z,2.37
2023-10-06T09:19:26.218Z,2.30
2023-10-06T09:20:37.991Z,2.28
2023-10-06T09:22:01.259Z,2.70
2023-10-06T09:23:05.678Z,2.92
2023-10-06T09:24:21.075Z,2.20
2023-10-06T09:25:24.089Z,2.65
2023-10-06T09:26:29.532Z,2.80
2023-10-06T09:27:38.624Z,2.60
2023-10-06T09:28:56.956Z,2.50
2023-10-06T09:30:01.853Z,2.65
2023-10-06T09:31:07.354Z,2.50
2023-10-06T09:32:23.250Z,2.20
2023-10-06T09:33:28.390Z,2.47
2023-10-06T09:34:34.134Z,2.50
2023-10-06T09:35:37.287Z,2.22
2023-10-06T09:36:45.788Z,2.30
2023-10-06T09:37:56.101Z,2.40
2023-10-06T09:39:04.452Z,2.37
2023-10-06T09:40:23.523Z,2.00
2023-10-06T09:41:30.315Z,2.17
2023-10-06T09:42:34.827Z,2.50
2023-10-06T09:43:41.836Z,2.35
2023-10-06T09:44:47.931Z,2.42
2023-10-06T09:45:53.428Z,2.40
2023-10-06T09:47:01.477Z,2.30
2023-10-06T09:48:10.768Z,2.10
2023-10-06T09:49:17.756Z,2.60
2023-10-06T09:50:21.879Z,2.17
2023-10-06T09:51:26.725Z,2.53
2023-10-06T09:52:34.862Z,2.83
2023-10-06T09:53:45.452Z,2.70
2023-10-06T09:54:49.475Z,2.67
2023-10-06T09:55:53.424Z,2.12
2023-10-06T09:56:56.977Z,2.28
2023-10-06T09:58:00.681Z,2.22
2023-10-06T09:59:09.162Z,2.10
2023-10-06T10:00:17.830Z,2.10
2023-10-06T10:01:25.724Z,2.20
2023-10-06T10:02:31.352Z,2.37
2023-10-06T10:03:36.690Z,2.30
2023-10-06T10:04:40.450Z,2.20
2023-10-06T10:05:43.521Z,2.20
2023-10-06T10:06:46.658Z,1.73
2023-10-06T10:07:50.478Z,1.95
2023-10-06T10:08:53.916Z,1.70
2023-10-06T10:09:58.761Z,1.87
2023-10-06T10:11:30.883Z,2.30
2023-10-06T10:13:21.248Z,2.12
2023-10-06T10:15:04.459Z,1.90
2023-10-06T10:16:11.120Z,1.67
2023-10-06T10:17:45.430Z,2.10
2023-10-06T10:18:57.926Z,1.75
2023-10-06T10:20:04.191Z,1.60
2023-10-06T10:21:13.403Z,1.87
2023-10-06T10:22:17.646Z,1.58
2023-10-06T10:23:21.845Z,1.52
2023-10-06T10:25:32.657Z,1.80
2023-10-06T10:26:40.457Z,1.50
2023-10-06T10:27:44.679Z,1.67
2023-10-06T10:29:19.182Z,1.70
2023-10-06T10:30:55.555Z,2.00
2023-10-06T10:32:04.347Z,2.05
2023-10-06T10:33:08.767Z,1.73
2023-10-06T10:36:21.590Z,2.12
2023-10-06T10:37:26.432Z,1.98
2023-10-06T10:38:29.178Z,1.75
2023-10-06T10:39:47.365Z,1.80
2023-10-06T10:40:51.328Z,1.77
2023-10-06T10:42:00.170Z,1.80
2023-10-06T10:43:07.838Z,1.80
2023-10-06T10:44:24.753Z,1.62
2023-10-06T10:45:52.067Z,1.52
2023-10-06T10:46:57.595Z,1.83
2023-10-06T10:48:01.009Z,2.00
2023-10-06T10:49:04.661Z,1.70
2023-10-06T10:50:08.484Z,1.70
2023-10-06T10:51:16.504Z,1.92
2023-10-06T10:52:22.225Z,1.98
2023-10-06T10:53:30.683Z,2.28
2023-10-06T10:54:38.027Z,1.62
2023-10-06T10:55:41.120Z,1.85
2023-10-06T10:56:51.114Z,2.15
2023-10-06T10:57:54.133Z,1.73
2023-10-06T10:58:58.215Z,1.85
2023-10-06T11:00:09.849Z,2.00
2023-10-06T11:01:33.660Z,1.80
2023-10-06T11:03:01.467Z,2.00
2023-10-06T11:04:16.620Z,1.80
2023-10-06T11:05:21.708Z,1.80
2023-10-06T11:06:25.136Z,1.87
2023-10-06T11:07:28.069Z,1.85
2023-10-06T11:08:40.581Z,1.83
2023-10-06T11:09:48.727Z,1.85
2023-10-06T11:10:59.794Z,2.03
2023-10-06T11:12:23.778Z,1.70
2023-10-06T11:13:37.215Z,1.77
2023-10-06T11:14:47.900Z,1.77
2023-10-06T11:15:51.192Z,1.70
2023-10-06T11:17:04.471Z,1.60
2023-10-06T11:18:07.728Z,1.45
2023-10-06T11:19:16.639Z,1.50
2023-10-06T11:20:28.713Z,1.60
2023-10-06T11:21:32.881Z,2.05
2023-10-06T11:22:36.049Z,1.58
2023-10-06T11:23:43.338Z,1.90
2023-10-06T11:24:49.177Z,1.62
2023-10-06T11:25:52.583Z,1.40
2023-10-06T11:26:56.054Z,1.50
2023-10-06T11:28:10.381Z,1.62
2023-10-06T11:29:13.896Z,1.90
2023-10-06T11:30:18.722Z,1.73
2023-10-06T11:31:21.832Z,1.67
2023-10-06T11:32:25.391Z,1.70
2023-10-06T11:33:28.500Z,1.75
2023-10-06T11:34:31.774Z,1.70
2023-10-06T11:35:35.850Z,1.60
2023-10-06T11:36:41.775Z,2.15
2023-10-06T11:37:44.826Z,1.62
2023-10-06T11:38:48.220Z,1.83
2023-10-06T11:39:55.250Z,1.50
2023-10-06T11:40:58.534Z,1.95
2023-10-06T11:42:23.632Z,1.70
2023-10-06T11:43:26.465Z,1.90
2023-10-06T11:44:39.190Z,1.77
2023-10-06T11:45:43.951Z,1.85
2023-10-06T11:46:54.205Z,2.05
2023-10-06T11:47:57.605Z,1.60
2023-10-06T11:49:11.371Z,1.70
2023-10-06T11:50:29.827Z,1.98
2023-10-06T11:51:41.009Z,1.73
2023-10-06T11:52:45.297Z,1.40
2023-10-06T11:53:48.599Z,1.67
2023-10-06T11:54:53.073Z,1.42
2023-10-06T11:56:31.777Z,1.50
2023-10-06T11:57:47.393Z,1.30
2023-10-06T11:58:50.799Z,1.40
2023-10-06T11:59:58.672Z,1.77
2023-10-06T12:01:01.502Z,1.62
2023-10-06T12:02:10.694Z,1.58
2023-10-06T12:03:14.110Z,1.67
2023-10-06T12:04:33.257Z,1.65
2023-10-06T12:05:37.311Z,1.35
2023-10-06T12:06:44.506Z,1.50
2023-10-06T12:07:56.829Z,1.35
2023-10-06T12:08:59.637Z,1.50
2023-10-06T12:10:04.898Z,1.30
2023-10-06T12:11:07.863Z,1.60
2023-10-06T12:12:11.037Z,1.60
2023-10-06T12:13:14.186Z,1.37
2023-10-06T12:14:17.393Z,1.30
2023-10-06T12:15:21.720Z,1.40
2023-10-06T12:16:25.452Z,1.42
2023-10-06T12:17:28.646Z,1.23
2023-10-06T12:18:32.257Z,1.40
2023-10-06T12:19:35.153Z,1.30
2023-10-06T12:20:38.078Z,1.50
2023-10-06T12:21:41.205Z,1.27
2023-10-06T12:22:45.293Z,1.35
2023-10-06T12:23:48.616Z,1.40
2023-10-06T12:24:51.577Z,1.17
2023-10-06T12:25:56.885Z,1.62
2023-10-06T12:27:00.055Z,1.25
2023-10-06T12:28:03.542Z,1.55
2023-10-06T12:29:06.974Z,1.30
2023-10-06T12:30:11.055Z,1.52
2023-10-06T12:31:14.293Z,1.30
2023-10-06T12:32:17.352Z,1.25
2023-10-06T12:33:20.369Z,1.20
2023-10-06T12:34:24.305Z,0.90
2023-10-06T12:35:30.571Z,1.37
2023-10-06T12:36:36.210Z,1.20
2023-10-06T12:37:43.140Z,1.10
2023-10-06T12:38:46.472Z,1.37
2023-10-06T12:39:53.270Z,1.12
2023-10-06T12:40:57.420Z,1.00
2023-10-06T12:42:00.942Z,1.10
2023-10-06T12:43:04.304Z,1.17
2023-10-06T12:44:10.481Z,1.20
2023-10-06T12:45:19.642Z,1.20
2023-10-06T12:46:24.149Z,1.00
2023-10-06T12:47:28.236Z,1.27
2023-10-06T12:48:39.650Z,1.25
2023-10-06T12:49:47.215Z,1.35
2023-10-06T12:50:50.271Z,1.00
2023-10-06T12:51:53.510Z,1.30
2023-10-06T12:52:56.965Z,1.10
2023-10-06T12:54:01.686Z,0.90
2023-10-06T12:55:12.021Z,0.80
2023-10-06T12:56:14.752Z,1.15
2023-10-06T12:57:17.640Z,1.10
2023-10-06T12:58:20.374Z,1.15
2023-10-06T12:59:23.893Z,1.10
2023-10-06T13:00:29.379Z,2.50
2023-10-06T13:01:33.513Z,3.40
2023-10-06T13:02:36.847Z,1.90
2023-10-06T13:03:40.201Z,1.20
2023-10-06T13:04:43.912Z,1.30
2023-10-06T13:05:47.980Z,1.12
2023-10-06T13:06:53.156Z,1.05
2023-10-06T13:07:58.906Z,0.90
2023-10-06T13:09:03.797Z,0.98
2023-10-06T13:10:09.968Z,0.70
2023-10-06T13:11:13.144Z,0.90
2023-10-06T13:12:15.923Z,0.93
2023-10-06T13:13:19.132Z,0.60
2023-10-06T13:14:22.405Z,0.80
2023-10-06T13:15:25.738Z,1.00
2023-10-06T13:16:28.875Z,0.70
2023-10-06T13:17:34.777Z,1.05
2023-10-06T13:18:38.364Z,1.15
2023-10-06T13:19:41.234Z,1.33
2023-10-06T13:20:44.836Z,1.12
2023-10-06T13:21:47.891Z,1.23
2023-10-06T13:22:51.114Z,1.42
2023-10-06T13:23:55.947Z,0.93
2023-10-06T13:24:59.051Z,1.20
2023-10-06T13:26:02.650Z,1.00
2023-10-06T13:27:09.880Z,1.45
2023-10-06T13:28:17.795Z,0.98
2023-10-06T13:29:23.631Z,1.15
2023-10-06T13:30:26.798Z,1.10
2023-10-06T13:31:30.122Z,1.42
2023-10-06T13:32:37.931Z,1.20
2023-10-06T13:33:41.367Z,1.02
2023-10-06T13:34:44.421Z,1.10
2023-10-06T13:35:49.566Z,1.23
2023-10-06T13:36:52.639Z,1.00
2023-10-06T13:37:55.565Z,1.60
2023-10-06T13:38:58.859Z,1.12
2023-10-06T13:40:01.863Z,1.40
2023-10-06T13:41:05.841Z,1.33
2023-10-06T13:42:12.656Z,1.25
2023-10-06T13:43:15.805Z,1.10
2023-10-06T13:44:20.003Z,1.02
2023-10-06T13:45:23.930Z,0.90
2023-10-06T13:46:27.163Z,1.20
2023-10-06T13:47:30.047Z,0.90
2023-10-06T13:48:33.007Z,1.20
2023-10-06T13:49:35.875Z,1.08
2023-10-06T13:50:39.202Z,1.30
2023-10-06T13:51:43.053Z,1.08
2023-10-06T13:52:47.580Z,0.90
2023-10-06T13:53:50.704Z,1.20
2023-10-06T13:54:53.513Z,0.90
2023-10-06T13:55:57.458Z,0.85
2023-10-06T13:57:01.933Z,1.10
2023-10-06T13:58:09.613Z,1.20
2023-10-06T13:59:15.736Z,1.05
2023-10-06T14:00:42.150Z,1.05
2023-10-06T14:01:46.363Z,1.00
2023-10-06T14:02:50.696Z,1.20
2023-10-06T14:03:53.909Z,1.10
2023-10-06T14:04:58.835Z,1.15
2023-10-06T14:06:04.210Z,0.90
2023-10-06T14:07:13.056Z,0.90
2023-10-06T14:08:16.035Z,0.98
2023-10-06T14:09:25.242Z,1.00
2023-10-06T14:10:28.893Z,0.90
2023-10-06T14:11:32.040Z,1.05
2023-10-06T14:12:34.892Z,1.10
2023-10-06T14:13:40.922Z,1.00
2023-10-06T14:14:46.708Z,1.35
2023-10-06T14:15:50.943Z,1.33
2023-10-06T14:16:55.864Z,1.50
2023-10-06T14:18:00.153Z,1.00
2023-10-06T14:19:03.583Z,0.80
2023-10-06T14:20:12.369Z,1.27
2023-10-06T14:21:15.392Z,1.30
2023-10-06T14:22:22.615Z,1.10
2023-10-06T14:23:31.631Z,1.20
2023-10-06T14:24:37.474Z,1.15
2023-10-06T14:25:42.041Z,1.23
2023-10-06T14:26:45.865Z,1.27
2023-10-06T14:27:53.630Z,1.35
2023-10-06T14:28:56.509Z,1.37
2023-10-06T14:30:05.014Z,1.20
2023-10-06T14:31:18.220Z,1.33
2023-10-06T14:32:39.896Z,1.40
2023-10-06T14:33:46.374Z,1.20
2023-10-06T14:35:00.078Z,1.00
2023-10-06T14:36:03.387Z,1.50
2023-10-06T14:37:15.301Z,1.10
2023-10-06T14:38:34.329Z,1.10
2023-10-06T14:39:56.435Z,1.08
2023-10-06T14:41:21.321Z,1.00
2023-10-06T14:42:43.137Z,1.00
2023-10-06T14:44:10.710Z,1.17
2023-10-06T14:45:32.529Z,1.02
2023-10-06T14:46:38.382Z,1.20
2023-10-06T14:47:42.654Z,1.20